sensor_id;sensor_type;location;lat;lon;timestamp;pressure;altitude;pressure_sealevel;temperature;humidity
55032;BME280;40928;51.076;7.950;2023-05-22T00:01:14;96912.69;;;13.09;100.00
55032;BME280;40928;51.076;7.950;2023-05-22T00:03:44;96904.88;;;13.08;100.00
55032;BME280;40928;51.076;7.950;2023-05-22T00:06:09;96893.31;;;12.97;100.00
55032;BME280;40928;51.076;7.950;2023-05-22T00:08:36;96900.28;;;12.98;100.00
55032;BME280;40928;51.076;7.950;2023-05-22T00:11:02;96894.09;;;12.98;100.00
55032;BME280;40928;51.076;7.950;2023-05-22T00:13:28;96906.44;;;12.99;100.00
55032;BME280;40928;51.076;7.950;2023-05-22T00:15:53;96900.28;;;12.98;100.00
55032;BME280;40928;51.076;7.950;2023-05-22T00:18:19;96890.31;;;12.93;100.00
55032;BME280;40928;51.076;7.950;2023-05-22T00:20:45;96891.38;;;12.92;100.00
55032;BME280;40928;51.076;7.950;2023-05-22T00:23:12;96891.63;;;12.91;100.00
55032;BME280;40928;51.076;7.950;2023-05-22T00:25:39;96887.06;;;12.86;100.00
55032;BME280;40928;51.076;7.950;2023-05-22T00:28:05;96890.22;;;12.83;100.00
55032;BME280;40928;51.076;7.950;2023-05-22T00:30:31;96886.44;;;12.79;100.00
55032;BME280;40928;51.076;7.950;2023-05-22T00:32:58;96884.53;;;12.74;100.00
55032;BME280;40928;51.076;7.950;2023-05-22T00:35:24;96877.84;;;12.72;100.00
55032;BME280;40928;51.076;7.950;2023-05-22T00:37:50;96878.63;;;12.72;100.00
55032;BME280;40928;51.076;7.950;2023-05-22T00:40:17;96875.16;;;12.72;100.00
55032;BME280;40928;51.076;7.950;2023-05-22T00:42:43;96875.16;;;12.72;100.00
55032;BME280;40928;51.076;7.950;2023-05-22T00:45:10;96870.31;;;12.69;100.00
55032;BME280;40928;51.076;7.950;2023-05-22T00:47:37;96868.63;;;12.62;100.00
55032;BME280;40928;51.076;7.950;2023-05-22T00:55:28;96863.25;;;12.57;100.00
55032;BME280;40928;51.076;7.950;2023-05-22T00:57:55;96856.78;;;12.53;100.00
55032;BME280;40928;51.076;7.950;2023-05-22T01:00:22;96859.19;;;12.55;100.00
55032;BME280;40928;51.076;7.950;2023-05-22T01:02:50;96859.72;;;12.52;100.00
55032;BME280;40928;51.076;7.950;2023-05-22T01:05:16;96855.94;;;12.47;100.00
55032;BME280;40928;51.076;7.950;2023-05-22T01:07:44;96850.81;;;12.46;100.00
55032;BME280;40928;51.076;7.950;2023-05-22T01:10:10;96850.81;;;12.46;100.00
55032;BME280;40928;51.076;7.950;2023-05-22T01:12:59;96855.13;;;12.47;100.00
55032;BME280;40928;51.076;7.950;2023-05-22T01:15:51;96847.34;;;12.45;100.00
55032;BME280;40928;51.076;7.950;2023-05-22T01:18:44;96847.06;;;12.42;100.00
55032;BME280;40928;51.076;7.950;2023-05-22T01:21:19;96843.81;;;12.40;100.00
55032;BME280;40928;51.076;7.950;2023-05-22T01:29:54;96837.63;;;12.34;100.00
55032;BME280;40928;51.076;7.950;2023-05-22T01:32:26;96832.50;;;12.32;100.00
55032;BME280;40928;51.076;7.950;2023-05-22T01:34:56;96835.50;;;12.36;100.00
55032;BME280;40928;51.076;7.950;2023-05-22T01:37:23;96836.78;;;12.33;100.00
55032;BME280;40928;51.076;7.950;2023-05-22T01:39:51;96831.94;;;12.30;100.00
55032;BME280;40928;51.076;7.950;2023-05-22T01:42:17;96829.53;;;12.29;100.00
55032;BME280;40928;51.076;7.950;2023-05-22T01:44:43;96844.75;;;12.23;100.00
55032;BME280;40928;51.076;7.950;2023-05-22T01:47:09;96844.19;;;12.21;100.00
55032;BME280;40928;51.076;7.950;2023-05-22T01:49:35;96847.69;;;12.22;100.00
55032;BME280;40928;51.076;7.950;2023-05-22T01:52:09;96843.69;;;12.24;100.00
55032;BME280;40928;51.076;7.950;2023-05-22T01:55:17;96839.94;;;12.25;100.00
55032;BME280;40928;51.076;7.950;2023-05-22T02:00:35;96839.94;;;12.25;100.00
55032;BME280;40928;51.076;7.950;2023-05-22T02:03:08;96844.19;;;12.21;100.00
55032;BME280;40928;51.076;7.950;2023-05-22T02:05:38;96844.69;;;12.18;100.00
55032;BME280;40928;51.076;7.950;2023-05-22T02:08:04;96847.13;;;12.20;100.00
55032;BME280;40928;51.076;7.950;2023-05-22T02:10:32;96839.59;;;12.16;100.00
55032;BME280;40928;51.076;7.950;2023-05-22T02:13:00;96840.66;;;12.15;100.00
55032;BME280;40928;51.076;7.950;2023-05-22T02:15:26;96847.34;;;12.13;100.00
55032;BME280;40928;51.076;7.950;2023-05-22T02:17:51;96838.75;;;12.11;100.00
55032;BME280;40928;51.076;7.950;2023-05-22T02:20:17;96840.59;;;12.10;100.00
55032;BME280;40928;51.076;7.950;2023-05-22T02:22:45;96836.56;;;12.08;100.00
55032;BME280;40928;51.076;7.950;2023-05-22T02:25:14;96838.97;;;12.04;100.00
55032;BME280;40928;51.076;7.950;2023-05-22T02:27:42;96832.22;;;12.01;100.00
55032;BME280;40928;51.076;7.950;2023-05-22T02:30:09;96824.44;;;12.00;100.00
55032;BME280;40928;51.076;7.950;2023-05-22T02:32:37;96822.56;;;12.00;100.00
55032;BME280;40928;51.076;7.950;2023-05-22T02:35:03;96825.25;;;12.00;100.00
55032;BME280;40928;51.076;7.950;2023-05-22T02:37:29;96824.13;;;11.96;100.00
55032;BME280;40928;51.076;7.950;2023-05-22T02:39:55;96817.97;;;11.96;100.00
55032;BME280;40928;51.076;7.950;2023-05-22T02:42:22;96820.91;;;11.94;100.00
55032;BME280;40928;51.076;7.950;2023-05-22T02:44:48;96819.22;;;11.88;100.00
55032;BME280;40928;51.076;7.950;2023-05-22T02:47:14;96819.22;;;11.88;100.00
55032;BME280;40928;51.076;7.950;2023-05-22T02:49:39;96825.31;;;11.83;100.00
55032;BME280;40928;51.076;7.950;2023-05-22T02:52:05;96817.78;;;11.80;100.00
55032;BME280;40928;51.076;7.950;2023-05-22T02:54:31;96817.78;;;11.80;100.00
55032;BME280;40928;51.076;7.950;2023-05-22T02:56:57;96820.25;;;11.82;100.00
55032;BME280;40928;51.076;7.950;2023-05-22T02:59:22;96822.66;;;11.83;100.00
55032;BME280;40928;51.076;7.950;2023-05-22T03:01:48;96813.84;;;11.83;100.00
55032;BME280;40928;51.076;7.950;2023-05-22T03:04:13;96813.84;;;11.83;100.00
55032;BME280;40928;51.076;7.950;2023-05-22T03:06:41;96817.00;;;11.80;100.00
55032;BME280;40928;51.076;7.950;2023-05-22T03:09:10;96818.63;;;11.81;100.00
55032;BME280;40928;51.076;7.950;2023-05-22T03:11:36;96808.34;;;11.72;100.00
55032;BME280;40928;51.076;7.950;2023-05-22T03:14:02;96813.72;;;11.72;100.00
55032;BME280;40928;51.076;7.950;2023-05-22T03:16:28;96813.16;;;11.70;100.00
55032;BME280;40928;51.076;7.950;2023-05-22T03:21:33;96812.34;;;11.70;100.00
55032;BME280;40928;51.076;7.950;2023-05-22T03:23:59;96814.72;;;11.66;100.00
55032;BME280;40928;51.076;7.950;2023-05-22T03:26:24;96805.03;;;11.60;100.00
55032;BME280;40928;51.076;7.950;2023-05-22T03:28:54;96802.84;;;11.57;100.00
55032;BME280;40928;51.076;7.950;2023-05-22T03:31:21;96805.50;;;11.57;100.00
55032;BME280;40928;51.076;7.950;2023-05-22T03:34:00;96801.78;;;11.58;100.00
55032;BME280;40928;51.076;7.950;2023-05-22T03:36:25;96806.06;;;11.59;100.00
55032;BME280;40928;51.076;7.950;2023-05-22T03:38:52;96807.19;;;11.63;100.00
55032;BME280;40928;51.076;7.950;2023-05-22T03:41:18;96803.69;;;11.63;100.00
55032;BME280;40928;51.076;7.950;2023-05-22T03:46:09;96807.44;;;11.62;100.00
55032;BME280;40928;51.076;7.950;2023-05-22T03:48:36;96807.38;;;11.56;100.00
55032;BME280;40928;51.076;7.950;2023-05-22T03:51:04;96801.22;;;11.56;100.00
55032;BME280;40928;51.076;7.950;2023-05-22T03:53:31;96805.28;;;11.58;100.00
55032;BME280;40928;51.076;7.950;2023-05-22T03:55:58;96802.84;;;11.57;100.00
55032;BME280;40928;51.076;7.950;2023-05-22T03:58:24;96802.84;;;11.57;100.00
55032;BME280;40928;51.076;7.950;2023-05-22T04:00:53;96806.06;;;11.59;100.00
55032;BME280;40928;51.076;7.950;2023-05-22T04:03:20;96804.47;;;11.58;100.00
55032;BME280;40928;51.076;7.950;2023-05-22T04:05:47;96804.94;;;11.55;100.00
55032;BME280;40928;51.076;7.950;2023-05-22T04:08:13;96813.22;;;11.53;100.00
55032;BME280;40928;51.076;7.950;2023-05-22T04:10:40;96810.81;;;11.52;100.00
55032;BME280;40928;51.076;7.950;2023-05-22T04:13:07;96804.38;;;11.53;100.00
55032;BME280;40928;51.076;7.950;2023-05-22T04:15:33;96816.69;;;11.54;100.00
55032;BME280;40928;51.076;7.950;2023-05-22T04:18:01;96818.88;;;11.57;100.00
55032;BME280;40928;51.076;7.950;2023-05-22T04:25:43;96829.19;;;11.70;100.00
55032;BME280;40928;51.076;7.950;2023-05-22T04:28:12;96822.56;;;11.73;100.00
55032;BME280;40928;51.076;7.950;2023-05-22T04:30:43;96825.22;;;11.73;100.00
55032;BME280;40928;51.076;7.950;2023-05-22T04:33:10;96832.44;;;11.72;100.00
55032;BME280;40928;51.076;7.950;2023-05-22T04:35:39;96828.97;;;11.72;100.00
55032;BME280;40928;51.076;7.950;2023-05-22T04:38:10;96825.78;;;11.75;100.00
55032;BME280;40928;51.076;7.950;2023-05-22T04:40:37;96830.94;;;11.82;100.00
55032;BME280;40928;51.076;7.950;2023-05-22T04:43:05;96831.31;;;11.91;100.00
55032;BME280;40928;51.076;7.950;2023-05-22T04:45:31;96841.47;;;11.94;100.00
55032;BME280;40928;51.076;7.950;2023-05-22T04:47:58;96839.34;;;11.96;100.00
55032;BME280;40928;51.076;7.950;2023-05-22T04:50:27;96835.16;;;12.00;100.00
55032;BME280;40928;51.076;7.950;2023-05-22T04:52:57;96837.06;;;12.05;100.00
55032;BME280;40928;51.076;7.950;2023-05-22T04:55:24;96838.75;;;12.11;100.00
55032;BME280;40928;51.076;7.950;2023-05-22T04:57:49;96836.94;;;12.16;100.00
55032;BME280;40928;51.076;7.950;2023-05-22T05:00:17;96834.03;;;12.23;100.00
55032;BME280;40928;51.076;7.950;2023-05-22T05:02:45;96837.00;;;12.27;100.00
55032;BME280;40928;51.076;7.950;2023-05-22T05:05:10;96838.91;;;12.31;100.00
55032;BME280;40928;51.076;7.950;2023-05-22T05:07:41;96841.91;;;12.35;100.00
55032;BME280;40928;51.076;7.950;2023-05-22T05:10:08;96835.78;;;12.40;100.00
55032;BME280;40928;51.076;7.950;2023-05-22T05:12:33;96846.56;;;12.45;100.00
55032;BME280;40928;51.076;7.950;2023-05-22T05:14:59;96831.34;;;12.51;100.00
55032;BME280;40928;51.076;7.950;2023-05-22T05:17:24;96841.00;;;12.57;100.00
55032;BME280;40928;51.076;7.950;2023-05-22T05:19:50;96834.88;;;12.61;100.00
55032;BME280;40928;51.076;7.950;2023-05-22T05:22:16;96835.97;;;12.66;100.00
55032;BME280;40928;51.076;7.950;2023-05-22T05:24:41;96825.31;;;12.71;100.00
55032;BME280;40928;51.076;7.950;2023-05-22T05:27:07;96838.22;;;12.79;100.00
55032;BME280;40928;51.076;7.950;2023-05-22T05:29:33;96839.88;;;12.85;100.00
55032;BME280;40928;51.076;7.950;2023-05-22T05:32:05;96840.44;;;12.92;100.00
55032;BME280;40928;51.076;7.950;2023-05-22T05:34:37;96832.44;;;12.98;100.00
55032;BME280;40928;51.076;7.950;2023-05-22T05:37:09;96835.72;;;13.05;100.00
55032;BME280;40928;51.076;7.950;2023-05-22T05:39:35;96837.09;;;13.13;100.00
55032;BME280;40928;51.076;7.950;2023-05-22T05:42:03;96833.63;;;13.17;100.00
55032;BME280;40928;51.076;7.950;2023-05-22T05:44:31;96837.97;;;13.23;100.00
55032;BME280;40928;51.076;7.950;2023-05-22T05:47:11;96819.44;;;13.22;100.00
55032;BME280;40928;51.076;7.950;2023-05-22T05:49:42;96841.28;;;13.41;100.00
55032;BME280;40928;51.076;7.950;2023-05-22T05:52:08;96839.97;;;13.49;100.00
55032;BME280;40928;51.076;7.950;2023-05-22T05:54:46;96843.78;;;13.58;100.00
55032;BME280;40928;51.076;7.950;2023-05-22T05:57:19;96841.41;;;13.67;100.00
55032;BME280;40928;51.076;7.950;2023-05-22T05:59:45;96845.44;;;13.75;100.00
55032;BME280;40928;51.076;7.950;2023-05-22T06:02:38;96847.38;;;13.84;100.00
55032;BME280;40928;51.076;7.950;2023-05-22T06:05:20;96847.38;;;13.95;100.00
55032;BME280;40928;51.076;7.950;2023-05-22T06:07:51;96842.28;;;14.04;100.00
55032;BME280;40928;51.076;7.950;2023-05-22T06:10:20;96841.75;;;14.12;100.00
55032;BME280;40928;51.076;7.950;2023-05-22T06:12:55;96845.56;;;14.21;100.00
55032;BME280;40928;51.076;7.950;2023-05-22T06:15:21;96847.69;;;14.29;100.00
55032;BME280;40928;51.076;7.950;2023-05-22T06:17:47;96843.97;;;14.36;100.00
55032;BME280;40928;51.076;7.950;2023-05-22T06:20:12;96849.59;;;14.44;100.00
55032;BME280;40928;51.076;7.950;2023-05-22T06:22:40;96845.03;;;14.55;100.00
55032;BME280;40928;51.076;7.950;2023-05-22T06:25:12;96845.03;;;14.66;100.00
55032;BME280;40928;51.076;7.950;2023-05-22T06:28:02;96850.44;;;14.76;100.00
55032;BME280;40928;51.076;7.950;2023-05-22T06:30:38;96848.81;;;14.85;100.00
55032;BME280;40928;51.076;7.950;2023-05-22T06:33:04;96852.84;;;14.93;100.00
55032;BME280;40928;51.076;7.950;2023-05-22T06:35:30;96852.00;;;15.03;100.00
55032;BME280;40928;51.076;7.950;2023-05-22T06:37:55;96851.47;;;15.11;100.00
55032;BME280;40928;51.076;7.950;2023-05-22T06:40:23;96850.09;;;15.19;100.00
55032;BME280;40928;51.076;7.950;2023-05-22T06:42:52;96850.88;;;15.30;100.00
55032;BME280;40928;51.076;7.950;2023-05-22T06:45:35;96855.94;;;15.42;100.00
55032;BME280;40928;51.076;7.950;2023-05-22T06:48:37;96853.50;;;15.50;100.00
55032;BME280;40928;51.076;7.950;2023-05-22T06:51:25;96856.16;;;15.61;100.00
55032;BME280;40928;51.076;7.950;2023-05-22T06:54:02;96866.34;;;15.69;100.00
55032;BME280;40928;51.076;7.950;2023-05-22T06:56:42;96867.91;;;15.80;100.00
55032;BME280;40928;51.076;7.950;2023-05-22T06:59:23;96859.00;;;15.90;100.00
55032;BME280;40928;51.076;7.950;2023-05-22T07:02:06;96858.69;;;16.02;100.00
55032;BME280;40928;51.076;7.950;2023-05-22T07:04:54;96864.00;;;16.12;100.00
55032;BME280;40928;51.076;7.950;2023-05-22T07:07:49;96867.72;;;16.22;100.00
55032;BME280;40928;51.076;7.950;2023-05-22T07:10:16;96864.19;;;16.26;100.00
55032;BME280;40928;51.076;7.950;2023-05-22T07:12:42;96860.94;;;16.29;100.00
55032;BME280;40928;51.076;7.950;2023-05-22T07:20:24;96863.78;;;16.43;100.00
55032;BME280;40928;51.076;7.950;2023-05-22T07:23:19;96871.28;;;16.52;100.00
55032;BME280;40928;51.076;7.950;2023-05-22T07:31:22;96880.00;;;16.78;100.00
55032;BME280;40928;51.076;7.950;2023-05-22T07:37:17;96874.69;;;17.02;100.00
55032;BME280;40928;51.076;7.950;2023-05-22T07:39:47;96869.13;;;17.18;100.00
55032;BME280;40928;51.076;7.950;2023-05-22T07:42:14;96873.03;;;17.31;100.00
55032;BME280;40928;51.076;7.950;2023-05-22T07:44:46;96862.69;;;17.43;100.00
55032;BME280;40928;51.076;7.950;2023-05-22T07:47:12;96867.38;;;17.57;100.00
55032;BME280;40928;51.076;7.950;2023-05-22T07:49:38;96874.19;;;17.73;100.00
55032;BME280;40928;51.076;7.950;2023-05-22T07:52:04;96866.34;;;17.96;100.00
55032;BME280;40928;51.076;7.950;2023-05-22T07:54:29;96864.50;;;18.16;100.00
55032;BME280;40928;51.076;7.950;2023-05-22T07:56:56;96858.28;;;18.34;100.00
55032;BME280;40928;51.076;7.950;2023-05-22T07:59:25;96870.69;;;18.54;100.00
55032;BME280;40928;51.076;7.950;2023-05-22T08:01:54;96880.66;;;18.73;100.00
55032;BME280;40928;51.076;7.950;2023-05-22T08:04:19;96884.38;;;18.96;100.00
55032;BME280;40928;51.076;7.950;2023-05-22T08:06:45;96874.91;;;19.13;100.00
55032;BME280;40928;51.076;7.950;2023-05-22T08:09:11;96870.91;;;19.24;100.00
55032;BME280;40928;51.076;7.950;2023-05-22T08:14:12;96878.94;;;19.43;100.00
55032;BME280;40928;51.076;7.950;2023-05-22T08:16:39;96882.66;;;19.47;100.00
55032;BME280;40928;51.076;7.950;2023-05-22T08:19:08;96878.03;;;19.48;100.00
55032;BME280;40928;51.076;7.950;2023-05-22T08:21:34;96878.94;;;19.43;100.00
55032;BME280;40928;51.076;7.950;2023-05-22T08:24:02;96890.47;;;19.49;100.00
55032;BME280;40928;51.076;7.950;2023-05-22T08:26:28;96882.25;;;19.54;100.00
55032;BME280;40928;51.076;7.950;2023-05-22T08:28:55;96887.97;;;19.67;100.00
55032;BME280;40928;51.076;7.950;2023-05-22T08:31:20;96883.66;;;19.93;100.00
55032;BME280;40928;51.076;7.950;2023-05-22T08:33:47;96875.91;;;20.15;100.00
55032;BME280;40928;51.076;7.950;2023-05-22T08:36:13;96874.72;;;20.44;100.00
55032;BME280;40928;51.076;7.950;2023-05-22T08:38:39;96878.59;;;20.51;100.00
55032;BME280;40928;51.076;7.950;2023-05-22T08:41:06;96877.09;;;20.45;100.00
55032;BME280;40928;51.076;7.950;2023-05-22T08:43:32;96877.44;;;20.44;100.00
55032;BME280;40928;51.076;7.950;2023-05-22T08:46:05;96870.47;;;20.51;100.00
55032;BME280;40928;51.076;7.950;2023-05-22T08:48:33;96879.53;;;20.47;94.21
55032;BME280;40928;51.076;7.950;2023-05-22T08:51:04;96878.41;;;20.48;91.59
55032;BME280;40928;51.076;7.950;2023-05-22T08:53:33;96875.69;;;20.48;91.04
55032;BME280;40928;51.076;7.950;2023-05-22T08:56:01;96878.47;;;20.57;93.58
55032;BME280;40928;51.076;7.950;2023-05-22T08:58:27;96879.22;;;20.71;94.12
55032;BME280;40928;51.076;7.950;2023-05-22T09:00:54;96877.41;;;20.80;89.68
55032;BME280;40928;51.076;7.950;2023-05-22T09:03:20;96870.97;;;20.76;86.48
55032;BME280;40928;51.076;7.950;2023-05-22T09:05:47;96870.03;;;20.81;86.42
55032;BME280;40928;51.076;7.950;2023-05-22T09:08:14;96874.56;;;20.86;85.87
55032;BME280;40928;51.076;7.950;2023-05-22T09:10:40;96871.72;;;20.91;86.09
55032;BME280;40928;51.076;7.950;2023-05-22T09:13:07;96873.88;;;21.03;86.59
55032;BME280;40928;51.076;7.950;2023-05-22T09:15:35;96869.16;;;21.17;85.57
55032;BME280;40928;51.076;7.950;2023-05-22T09:18:04;96873.38;;;21.32;85.22
55032;BME280;40928;51.076;7.950;2023-05-22T09:20:37;96870.38;;;21.42;83.86
55032;BME280;40928;51.076;7.950;2023-05-22T09:23:12;96872.09;;;21.61;83.35
55032;BME280;40928;51.076;7.950;2023-05-22T09:25:48;96869.44;;;21.87;84.08
55032;BME280;40928;51.076;7.950;2023-05-22T09:28:14;96872.03;;;22.10;81.65
55032;BME280;40928;51.076;7.950;2023-05-22T09:30:40;96861.03;;;22.33;80.96
55032;BME280;40928;51.076;7.950;2023-05-22T09:33:07;96869.53;;;22.58;79.76
55032;BME280;40928;51.076;7.950;2023-05-22T09:35:37;96859.72;;;22.83;79.31
55032;BME280;40928;51.076;7.950;2023-05-22T09:38:07;96861.94;;;22.99;78.84
55032;BME280;40928;51.076;7.950;2023-05-22T09:40:40;96862.06;;;23.11;78.28
55032;BME280;40928;51.076;7.950;2023-05-22T09:43:10;96860.31;;;23.06;77.84
55032;BME280;40928;51.076;7.950;2023-05-22T09:45:37;96865.66;;;22.94;79.01
55032;BME280;40928;51.076;7.950;2023-05-22T09:48:05;96864.53;;;22.86;78.12
55032;BME280;40928;51.076;7.950;2023-05-22T09:50:37;96864.81;;;23.02;79.25
55032;BME280;40928;51.076;7.950;2023-05-22T09:53:04;96866.28;;;22.91;77.93
55032;BME280;40928;51.076;7.950;2023-05-22T09:55:30;96855.41;;;22.91;78.21
55032;BME280;40928;51.076;7.950;2023-05-22T09:57:57;96858.09;;;23.00;76.70
55032;BME280;40928;51.076;7.950;2023-05-22T10:00:26;96858.69;;;23.14;79.70
55032;BME280;40928;51.076;7.950;2023-05-22T10:02:57;96860.78;;;23.26;79.02
55032;BME280;40928;51.076;7.950;2023-05-22T10:05:30;96857.03;;;23.39;78.01
55032;BME280;40928;51.076;7.950;2023-05-22T10:08:10;96854.06;;;23.53;78.11
55032;BME280;40928;51.076;7.950;2023-05-22T10:10:39;96853.63;;;23.81;78.77
55032;BME280;40928;51.076;7.950;2023-05-22T10:13:06;96850.44;;;23.79;75.10
55032;BME280;40928;51.076;7.950;2023-05-22T10:15:33;96846.00;;;23.96;77.41
55032;BME280;40928;51.076;7.950;2023-05-22T10:18:00;96858.16;;;24.28;75.27
55032;BME280;40928;51.076;7.950;2023-05-22T10:20:28;96845.03;;;24.22;72.25
55032;BME280;40928;51.076;7.950;2023-05-22T10:22:54;96843.69;;;24.07;70.36
55032;BME280;40928;51.076;7.950;2023-05-22T10:25:20;96842.63;;;23.99;70.64
55032;BME280;40928;51.076;7.950;2023-05-22T10:27:51;96835.19;;;24.29;71.41
55032;BME280;40928;51.076;7.950;2023-05-22T10:33:39;96836.13;;;24.12;70.49
55032;BME280;40928;51.076;7.950;2023-05-22T10:36:07;96824.69;;;24.40;66.78
55032;BME280;40928;51.076;7.950;2023-05-22T10:41:16;96820.09;;;24.87;64.87
55032;BME280;40928;51.076;7.950;2023-05-22T10:43:43;96818.06;;;25.08;66.97
55032;BME280;40928;51.076;7.950;2023-05-22T10:46:11;96817.19;;;25.17;65.03
55032;BME280;40928;51.076;7.950;2023-05-22T10:48:39;96816.19;;;24.75;66.04
55032;BME280;40928;51.076;7.950;2023-05-22T10:51:11;96813.06;;;24.98;64.89
55032;BME280;40928;51.076;7.950;2023-05-22T10:53:38;96821.28;;;25.23;64.06
55032;BME280;40928;51.076;7.950;2023-05-22T10:56:12;96815.97;;;25.64;63.16
55032;BME280;40928;51.076;7.950;2023-05-22T10:58:42;96809.38;;;25.52;59.58
55032;BME280;40928;51.076;7.950;2023-05-22T11:01:16;96804.56;;;25.37;59.41
55032;BME280;40928;51.076;7.950;2023-05-22T11:03:57;96810.59;;;25.30;60.28
55032;BME280;40928;51.076;7.950;2023-05-22T11:09:26;96805.72;;;25.48;61.60
55032;BME280;40928;51.076;7.950;2023-05-22T11:14:41;96794.22;;;25.55;62.76
55032;BME280;40928;51.076;7.950;2023-05-22T11:17:06;96801.16;;;25.28;63.84
55032;BME280;40928;51.076;7.950;2023-05-22T11:19:32;96796.56;;;25.07;64.34
55032;BME280;40928;51.076;7.950;2023-05-22T11:22:02;96802.97;;;24.44;66.71
55032;BME280;40928;51.076;7.950;2023-05-22T11:24:31;96795.16;;;24.55;66.39
55032;BME280;40928;51.076;7.950;2023-05-22T11:27:08;96803.44;;;24.46;67.25
55032;BME280;40928;51.076;7.950;2023-05-22T11:29:34;96799.91;;;24.45;66.61
55032;BME280;40928;51.076;7.950;2023-05-22T11:32:00;96802.56;;;24.33;66.60
55032;BME280;40928;51.076;7.950;2023-05-22T11:34:37;96792.28;;;24.17;66.54
55032;BME280;40928;51.076;7.950;2023-05-22T11:37:05;96797.41;;;24.40;67.02
55032;BME280;40928;51.076;7.950;2023-05-22T11:39:31;96788.97;;;24.67;66.33
55032;BME280;40928;51.076;7.950;2023-05-22T11:41:57;96786.53;;;24.65;64.99
55032;BME280;40928;51.076;7.950;2023-05-22T11:44:28;96785.19;;;24.59;65.64
55032;BME280;40928;51.076;7.950;2023-05-22T11:46:54;96782.63;;;24.41;65.45
55032;BME280;40928;51.076;7.950;2023-05-22T11:49:23;96777.56;;;24.31;65.23
55032;BME280;40928;51.076;7.950;2023-05-22T11:51:50;96783.84;;;24.10;66.05
55032;BME280;40928;51.076;7.950;2023-05-22T11:54:21;96779.47;;;23.97;67.26
55032;BME280;40928;51.076;7.950;2023-05-22T11:56:47;96776.19;;;24.04;67.17
55032;BME280;40928;51.076;7.950;2023-05-22T11:59:13;96777.44;;;24.06;67.29
55032;BME280;40928;51.076;7.950;2023-05-22T12:01:40;96772.47;;;24.08;68.87
55032;BME280;40928;51.076;7.950;2023-05-22T12:04:06;96769.47;;;24.01;67.71
55032;BME280;40928;51.076;7.950;2023-05-22T12:06:32;96768.19;;;23.77;68.42
55032;BME280;40928;51.076;7.950;2023-05-22T12:09:00;96766.41;;;23.51;68.91
55032;BME280;40928;51.076;7.950;2023-05-22T12:11:27;96770.13;;;23.47;69.98
55032;BME280;40928;51.076;7.950;2023-05-22T12:14:04;96763.28;;;23.40;70.55
55032;BME280;40928;51.076;7.950;2023-05-22T12:16:35;96773.09;;;23.33;71.33
55032;BME280;40928;51.076;7.950;2023-05-22T12:19:11;96769.91;;;23.31;70.49
55032;BME280;40928;51.076;7.950;2023-05-22T12:21:41;96777.25;;;23.30;70.88
55032;BME280;40928;51.076;7.950;2023-05-22T12:24:09;96785.28;;;23.26;67.35
55032;BME280;40928;51.076;7.950;2023-05-22T12:26:39;96783.47;;;23.01;67.14
55032;BME280;40928;51.076;7.950;2023-05-22T12:29:07;96797.16;;;22.74;67.19
55032;BME280;40928;51.076;7.950;2023-05-22T12:31:34;96800.34;;;22.68;68.06
55032;BME280;40928;51.076;7.950;2023-05-22T12:34:03;96788.06;;;22.17;69.70
55032;BME280;40928;51.076;7.950;2023-05-22T12:36:38;96784.53;;;21.90;72.04
55032;BME280;40928;51.076;7.950;2023-05-22T12:39:12;96794.13;;;21.88;72.66
55032;BME280;40928;51.076;7.950;2023-05-22T12:41:38;96796.03;;;21.79;73.26
55032;BME280;40928;51.076;7.950;2023-05-22T12:44:04;96800.97;;;21.68;72.64
55032;BME280;40928;51.076;7.950;2023-05-22T12:46:31;96834.00;;;21.52;71.75
55032;BME280;40928;51.076;7.950;2023-05-22T12:49:00;96853.47;;;21.14;73.92
55032;BME280;40928;51.076;7.950;2023-05-22T12:51:27;96866.91;;;20.88;76.62
55032;BME280;40928;51.076;7.950;2023-05-22T12:54:01;96855.44;;;20.68;83.63
55032;BME280;40928;51.076;7.950;2023-05-22T12:56:28;96862.09;;;20.39;87.84
55032;BME280;40928;51.076;7.950;2023-05-22T12:59:00;96863.47;;;20.14;95.45
55032;BME280;40928;51.076;7.950;2023-05-22T13:01:26;96850.44;;;19.60;96.67
55032;BME280;40928;51.076;7.950;2023-05-22T13:03:53;96874.78;;;19.04;100.00
55032;BME280;40928;51.076;7.950;2023-05-22T13:06:18;96887.28;;;18.48;100.00
55032;BME280;40928;51.076;7.950;2023-05-22T13:08:45;96886.47;;;18.09;100.00
55032;BME280;40928;51.076;7.950;2023-05-22T13:11:10;96893.31;;;18.01;100.00
55032;BME280;40928;51.076;7.950;2023-05-22T13:13:39;96891.41;;;17.77;100.00
55032;BME280;40928;51.076;7.950;2023-05-22T13:16:11;96885.06;;;17.68;100.00
55032;BME280;40928;51.076;7.950;2023-05-22T13:18:37;96880.78;;;17.62;100.00
55032;BME280;40928;51.076;7.950;2023-05-22T13:21:02;96872.78;;;17.57;100.00
55032;BME280;40928;51.076;7.950;2023-05-22T13:23:28;96875.53;;;17.52;100.00
55032;BME280;40928;51.076;7.950;2023-05-22T13:25:54;96883.44;;;17.43;100.00
55032;BME280;40928;51.076;7.950;2023-05-22T13:28:21;96882.22;;;17.30;100.00
55032;BME280;40928;51.076;7.950;2023-05-22T13:30:46;96905.50;;;17.26;100.00
55032;BME280;40928;51.076;7.950;2023-05-22T13:37:36;96923.44;;;17.11;100.00
55032;BME280;40928;51.076;7.950;2023-05-22T13:40:02;96895.38;;;17.12;100.00
55032;BME280;40928;51.076;7.950;2023-05-22T13:42:27;96903.28;;;17.03;100.00
55032;BME280;40928;51.076;7.950;2023-05-22T13:44:53;96905.72;;;17.00;100.00
55032;BME280;40928;51.076;7.950;2023-05-22T13:47:19;96913.81;;;17.00;100.00
55032;BME280;40928;51.076;7.950;2023-05-22T13:49:47;96914.31;;;17.02;100.00
55032;BME280;40928;51.076;7.950;2023-05-22T13:52:15;96902.69;;;16.72;100.00
55032;BME280;40928;51.076;7.950;2023-05-22T13:54:41;96905.28;;;16.82;100.00
55032;BME280;40928;51.076;7.950;2023-05-22T13:57:07;96900.91;;;16.92;100.00
55032;BME280;40928;51.076;7.950;2023-05-22T13:59:32;96901.75;;;16.87;100.00